Time;durP1;ratioP1;P1;durP2;ratioP2;P2;SDS_P1;SDS_P2;PMS_P1;PMS_P2;Temp;Humidity;BMP_temperature;BMP_pressure;BME280_temperature;BME280_humidity;BME280_pressure;Samples;Min_cycle;Max_cycle;Signal;HPM_P1;HPM_P2
2021/09/03 00:00:58;;;;;;;16.27;14.70;;;12.10;99.90;;;;;;4997710;28;20205;-78
2021/09/03 00:03:25;;;;;;;15.47;14.17;;;12.10;99.90;;;;;;4997539;28;20214;-78
2021/09/03 00:05:51;;;;;;;15.83;14.43;;;12.00;99.90;;;;;;4998103;28;20222;-78
2021/09/03 00:08:18;;;;;;;15.23;13.93;;;12.00;99.90;;;;;;4996208;28;20263;-77
2021/09/03 00:10:46;;;;;;;14.83;13.53;;;12.00;99.90;;;;;;4998351;28;20210;-76
2021/09/03 00:13:13;;;;;;;15.30;14.00;;;12.00;99.90;;;;;;4997771;28;20366;-77
2021/09/03 00:15:40;;;;;;;15.07;13.77;;;11.90;99.90;;;;;;4998433;28;20193;-77
2021/09/03 00:18:07;;;;;;;15.40;14.00;;;11.90;99.90;;;;;;4996250;28;20206;-79
2021/09/03 00:20:36;;;;;;;15.93;14.43;;;11.80;99.90;;;;;;4998196;28;20201;-78
2021/09/03 00:23:04;;;;;;;15.40;14.00;;;11.80;99.90;;;;;;4997158;28;20225;-79
2021/09/03 00:25:31;;;;;;;15.80;14.40;;;11.80;99.90;;;;;;4996317;28;20583;-80
2021/09/03 00:27:59;;;;;;;15.47;13.97;;;11.70;99.90;;;;;;4996345;28;20625;-78
2021/09/03 00:30:26;;;;;;;15.23;13.93;;;11.70;99.90;;;;;;4997767;28;20209;-78
2021/09/03 00:32:52;;;;;;;14.83;13.63;;;11.70;99.90;;;;;;4997755;28;20269;-76
2021/09/03 00:35:19;;;;;;;16.00;14.60;;;11.70;99.90;;;;;;4996900;28;20671;-78
2021/09/03 00:37:46;;;;;;;15.77;14.40;;;11.60;99.90;;;;;;4996281;28;20252;-78
2021/09/03 00:40:13;;;;;;;15.53;14.13;;;11.60;99.90;;;;;;4996799;28;20201;-77
2021/09/03 00:42:40;;;;;;;15.07;13.67;;;11.70;99.90;;;;;;4996476;28;20225;-78
2021/09/03 00:45:09;;;;;;;15.87;14.37;;;11.60;99.90;;;;;;4998200;28;20690;-77
2021/09/03 00:47:36;;;;;;;15.87;14.37;;;11.60;99.90;;;;;;4998023;28;20469;-77
2021/09/03 00:50:03;;;;;;;15.70;14.37;;;11.60;99.90;;;;;;4996729;28;20209;-78
2021/09/03 00:52:30;;;;;;;15.97;14.57;;;11.50;99.90;;;;;;4996994;28;20256;-78
2021/09/03 00:54:59;;;;;;;15.47;13.97;;;11.40;99.90;;;;;;4997426;28;20607;-80
2021/09/03 00:57:26;;;;;;;15.87;14.57;;;11.40;99.90;;;;;;5000661;28;20205;-79
2021/09/03 00:59:55;;;;;;;15.87;14.47;;;11.40;99.90;;;;;;5005250;28;20232;-78
2021/09/03 01:02:24;;;;;;;15.90;14.43;;;11.30;99.90;;;;;;5000581;28;20228;-78
2021/09/03 01:04:51;;;;;;;15.53;14.23;;;11.30;99.90;;;;;;4994011;28;20205;-78
2021/09/03 01:07:18;;;;;;;16.53;15.03;;;11.30;99.90;;;;;;5001360;28;20248;-80
2021/09/03 01:09:45;;;;;;;15.87;14.47;;;11.30;99.90;;;;;;4998899;28;20252;-78
2021/09/03 01:12:12;;;;;;;16.30;14.70;;;11.30;99.90;;;;;;5028100;23;20236;-79
2021/09/03 01:14:39;;;;;;;15.93;14.53;;;11.20;99.90;;;;;;5017968;28;20212;-78
2021/09/03 01:17:06;;;;;;;15.57;14.27;;;11.20;99.90;;;;;;5017362;28;20258;-78
2021/09/03 01:19:34;;;;;;;15.23;13.93;;;11.20;99.90;;;;;;5013767;28;20212;-79
2021/09/03 01:22:02;;;;;;;15.23;13.77;;;11.10;99.90;;;;;;5015251;28;20266;-79
2021/09/03 01:24:29;;;;;;;15.63;14.23;;;11.10;99.90;;;;;;5014196;28;20767;-78
2021/09/03 01:26:56;;;;;;;15.47;14.07;;;11.10;99.90;;;;;;5015313;28;20220;-78
2021/09/03 01:29:22;;;;;;;15.67;14.27;;;11.10;99.90;;;;;;5013640;28;20208;-79
2021/09/03 01:31:49;;;;;;;14.90;13.60;;;11.10;99.90;;;;;;5013654;28;20271;-78
2021/09/03 01:34:16;;;;;;;14.93;13.63;;;11.10;99.90;;;;;;5015057;28;20805;-78
2021/09/03 01:36:43;;;;;;;15.40;13.90;;;11.10;99.90;;;;;;5015017;28;20263;-79
2021/09/03 01:39:11;;;;;;;15.50;14.10;;;11.00;99.90;;;;;;5013336;28;20201;-79
2021/09/03 01:41:38;;;;;;;16.17;14.77;;;11.00;99.90;;;;;;5013625;28;20200;-79
2021/09/03 01:44:05;;;;;;;16.03;14.53;;;11.00;99.90;;;;;;5015122;28;20192;-78
2021/09/03 01:46:32;;;;;;;17.47;15.67;;;10.90;99.90;;;;;;5006992;28;20220;-78
2021/09/03 01:48:58;;;;;;;14.87;13.53;;;11.00;99.90;;;;;;5014641;28;20196;-78
2021/09/03 01:51:25;;;;;;;15.47;13.97;;;10.90;99.90;;;;;;5015440;28;20208;-79
2021/09/03 01:53:52;;;;;;;16.47;14.97;;;10.80;99.90;;;;;;5014478;28;20258;-78
2021/09/03 01:56:20;;;;;;;15.83;14.37;;;10.90;99.90;;;;;;5013381;28;20263;-78
2021/09/03 01:58:47;;;;;;;16.20;14.60;;;10.80;99.90;;;;;;5014579;28;20264;-78
2021/09/03 02:01:14;;;;;;;16.37;14.77;;;10.80;99.90;;;;;;5013511;28;20197;-79
2021/09/03 02:03:41;;;;;;;16.17;14.57;;;10.70;99.90;;;;;;5014842;28;20212;-78
2021/09/03 02:06:08;;;;;;;15.40;14.07;;;10.70;99.90;;;;;;5016680;28;20216;-79
2021/09/03 02:08:35;;;;;;;15.77;14.17;;;10.60;99.90;;;;;;5011935;28;20743;-79
2021/09/03 02:11:02;;;;;;;15.90;14.50;;;10.60;99.90;;;;;;5014481;28;20704;-78
2021/09/03 02:13:30;;;;;;;15.20;13.90;;;10.60;99.90;;;;;;5012766;28;20240;-78
2021/09/03 02:15:57;;;;;;;15.77;14.37;;;10.60;99.90;;;;;;5014146;28;20188;-78
2021/09/03 02:18:24;;;;;;;16.10;14.53;;;10.60;99.90;;;;;;5014532;28;20254;-79
2021/09/03 02:20:51;;;;;;;15.73;14.33;;;10.60;99.90;;;;;;5007121;28;20204;-79
2021/09/03 02:23:17;;;;;;;16.27;14.70;;;10.50;99.90;;;;;;5006401;28;20278;-77
2021/09/03 02:25:45;;;;;;;16.03;14.53;;;10.50;99.90;;;;;;5014303;28;20209;-78
2021/09/03 02:28:12;;;;;;;16.17;14.57;;;10.50;99.90;;;;;;5012580;28;20196;-79
2021/09/03 02:30:40;;;;;;;15.73;14.20;;;10.50;99.90;;;;;;5011363;28;20609;-79
2021/09/03 02:33:07;;;;;;;15.87;14.37;;;10.40;99.90;;;;;;5012660;28;20220;-78
2021/09/03 02:35:34;;;;;;;15.20;13.90;;;10.40;99.90;;;;;;5014139;28;20192;-77
2021/09/03 02:38:01;;;;;;;16.57;15.03;;;10.30;99.90;;;;;;5012723;28;20259;-78
2021/09/03 02:40:28;;;;;;;14.93;13.43;;;10.30;99.90;;;;;;5011149;28;20209;-79
2021/09/03 02:42:55;;;;;;;15.40;14.00;;;10.30;99.90;;;;;;5031904;28;20216;-79
2021/09/03 02:45:23;;;;;;;15.73;14.17;;;10.30;99.90;;;;;;5010797;28;20800;-80
2021/09/03 02:47:52;;;;;;;14.63;13.43;;;10.30;99.90;;;;;;5004767;28;20274;-81
2021/09/03 02:50:19;;;;;;;15.73;14.17;;;10.20;99.90;;;;;;5028789;28;20204;-78
2021/09/03 02:52:46;;;;;;;16.70;15.20;;;10.20;99.90;;;;;;5010657;28;20227;-82
2021/09/03 02:55:13;;;;;;;14.30;13.00;;;10.10;99.90;;;;;;5011610;28;20478;-81
2021/09/03 02:57:40;;;;;;;15.73;14.20;;;10.10;99.90;;;;;;5010026;28;20207;-81
2021/09/03 03:00:09;;;;;;;15.67;14.27;;;10.10;99.90;;;;;;5009736;28;20227;-81
2021/09/03 03:02:36;;;;;;;15.17;13.80;;;10.00;99.90;;;;;;5009951;28;20220;-81
2021/09/03 03:05:05;;;;;;;17.17;15.67;;;10.00;99.90;;;;;;5009772;28;20247;-80
2021/09/03 03:07:32;;;;;;;15.63;14.17;;;10.00;99.90;;;;;;5009471;28;20345;-81
2021/09/03 03:09:58;;;;;;;15.70;14.17;;;10.00;99.90;;;;;;5019975;28;20247;-80
2021/09/03 03:12:25;;;;;;;15.20;13.80;;;10.00;99.90;;;;;;5011083;28;20236;-80
2021/09/03 03:14:52;;;;;;;15.57;14.17;;;10.00;99.90;;;;;;5014164;28;20211;-80
2021/09/03 03:17:19;;;;;;;16.00;14.63;;;9.90;99.90;;;;;;5011131;28;20213;-82
2021/09/03 03:19:46;;;;;;;15.97;14.57;;;9.90;99.90;;;;;;5011933;28;20193;-81
2021/09/03 03:22:14;;;;;;;16.03;14.70;;;9.90;99.90;;;;;;5011398;28;20278;-81
2021/09/03 03:24:41;;;;;;;17.63;16.13;;;9.90;99.90;;;;;;5011099;28;20211;-81
2021/09/03 03:27:08;;;;;;;18.30;16.57;;;9.90;99.90;;;;;;5011263;28;20224;-81
2021/09/03 03:29:35;;;;;;;16.63;15.03;;;9.80;99.90;;;;;;5012306;28;20346;-81
2021/09/03 03:32:02;;;;;;;17.63;15.93;;;9.80;99.90;;;;;;5022147;28;20217;-81
2021/09/03 03:34:30;;;;;;;17.50;16.00;;;9.80;99.90;;;;;;5011233;28;20244;-80
2021/09/03 03:36:56;;;;;;;16.97;15.57;;;9.70;99.90;;;;;;5012379;28;20189;-81
2021/09/03 03:39:25;;;;;;;16.97;15.47;;;9.70;99.90;;;;;;5012728;28;20196;-81
2021/09/03 03:41:52;;;;;;;17.10;15.63;;;9.60;99.90;;;;;;5012259;28;20254;-81
2021/09/03 03:44:19;;;;;;;17.60;16.00;;;9.60;99.90;;;;;;5012373;28;20204;-80
2021/09/03 03:46:46;;;;;;;18.17;16.57;;;9.60;99.90;;;;;;5010990;28;20689;-81
2021/09/03 03:49:14;;;;;;;16.60;15.10;;;9.70;99.90;;;;;;5010942;28;20200;-81
2021/09/03 03:51:41;;;;;;;18.17;16.47;;;9.60;99.90;;;;;;5013552;28;20236;-81
2021/09/03 03:54:07;;;;;;;17.77;16.13;;;9.70;99.90;;;;;;5012923;28;20204;-81
2021/09/03 03:56:36;;;;;;;17.67;16.00;;;9.70;99.90;;;;;;5015276;28;20274;-81
2021/09/03 03:59:03;;;;;;;16.53;15.20;;;9.70;99.90;;;;;;5010494;28;20200;-82
2021/09/03 04:01:29;;;;;;;17.70;16.10;;;9.70;99.90;;;;;;5011909;28;20206;-81
2021/09/03 04:03:56;;;;;;;17.83;16.33;;;9.70;99.90;;;;;;5012036;28;20220;-81
2021/09/03 04:06:23;;;;;;;18.30;16.60;;;9.80;99.90;;;;;;5010781;28;20212;-81
2021/09/03 04:08:50;;;;;;;17.30;15.90;;;9.80;99.90;;;;;;5007750;28;20201;-81
2021/09/03 04:11:17;;;;;;;16.90;15.50;;;9.80;99.90;;;;;;5010909;28;20204;-81
2021/09/03 04:13:45;;;;;;;17.47;16.07;;;9.80;99.90;;;;;;5011668;28;20274;-80
2021/09/03 04:16:12;;;;;;;18.03;16.37;;;9.70;99.90;;;;;;5011892;28;20224;-80
2021/09/03 04:18:40;;;;;;;17.80;16.30;;;9.70;99.90;;;;;;5010481;28;20204;-81
2021/09/03 04:21:06;;;;;;;19.07;17.13;;;9.80;99.90;;;;;;5014411;28;20204;-81
2021/09/03 04:23:33;;;;;;;18.40;16.80;;;9.80;99.90;;;;;;5010117;28;20651;-81
2021/09/03 04:26:00;;;;;;;17.70;16.20;;;9.80;99.90;;;;;;5012193;28;20220;-81
2021/09/03 04:28:27;;;;;;;18.80;17.10;;;9.80;99.90;;;;;;5011859;28;20263;-80
2021/09/03 04:30:55;;;;;;;18.33;16.83;;;9.70;99.90;;;;;;5010762;28;20680;-85
2021/09/03 04:33:22;;;;;;;18.53;17.03;;;9.70;99.90;;;;;;5014301;28;20700;-81
2021/09/03 04:35:49;;;;;;;19.37;17.67;;;9.70;99.90;;;;;;5014185;28;20246;-80
2021/09/03 04:38:16;;;;;;;19.00;17.40;;;9.70;99.90;;;;;;5014742;28;20250;-85
2021/09/03 04:40:44;;;;;;;18.77;17.07;;;9.60;99.90;;;;;;5007848;28;20204;-81
2021/09/03 04:43:10;;;;;;;17.77;16.37;;;9.70;99.90;;;;;;5009242;28;20215;-83
2021/09/03 04:45:37;;;;;;;18.57;17.07;;;9.70;99.90;;;;;;5015526;28;20203;-76
2021/09/03 04:48:06;;;;;;;19.73;18.13;;;9.70;99.90;;;;;;5022082;28;20548;-80
2021/09/03 04:50:33;;;;;;;19.20;17.50;;;9.70;99.90;;;;;;5014176;28;20665;-84
2021/09/03 04:53:00;;;;;;;18.10;16.67;;;9.70;99.90;;;;;;5015264;28;20270;-81
2021/09/03 04:55:27;;;;;;;18.97;17.37;;;9.60;99.90;;;;;;5014930;28;20217;-79
2021/09/03 04:57:53;;;;;;;19.93;18.03;;;9.60;99.90;;;;;;5012828;28;20216;-82
2021/09/03 05:00:20;;;;;;;19.20;17.60;;;9.60;99.90;;;;;;5022783;28;20269;-82
2021/09/03 05:02:48;;;;;;;19.03;17.20;;;9.70;99.90;;;;;;5010911;28;20227;-79
2021/09/03 05:05:16;;;;;;;18.43;16.83;;;9.60;99.90;;;;;;5020037;28;20202;-82
2021/09/03 05:07:43;;;;;;;18.30;16.90;;;9.60;99.90;;;;;;5016904;28;20235;-81
2021/09/03 05:10:16;;;;;;;18.70;16.80;;;9.60;99.90;;;;;;5031466;28;20204;-81
2021/09/03 05:12:43;;;;;;;18.60;17.03;;;9.60;99.90;;;;;;5012996;28;20248;-81
2021/09/03 05:15:12;;;;;;;17.67;16.27;;;9.70;99.90;;;;;;5014963;28;20196;-81
2021/09/03 05:17:39;;;;;;;18.97;17.27;;;9.70;99.90;;;;;;5012654;28;20259;-82
2021/09/03 05:20:07;;;;;;;19.27;17.57;;;9.70;99.90;;;;;;5011317;28;20209;-82
2021/09/03 05:22:35;;;;;;;17.90;16.50;;;9.70;99.90;;;;;;5011369;28;20217;-81
2021/09/03 05:25:03;;;;;;;18.70;17.07;;;9.80;99.90;;;;;;5008261;28;20720;-81
2021/09/03 05:27:30;;;;;;;17.33;15.97;;;9.90;99.90;;;;;;4989161;28;20225;-82
2021/09/03 05:29:57;;;;;;;17.30;16.00;;;10.00;99.90;;;;;;4991335;28;20202;-81
2021/09/03 05:32:24;;;;;;;17.80;16.50;;;10.10;99.90;;;;;;4995113;28;20428;-82
2021/09/03 05:34:50;;;;;;;17.63;16.23;;;10.20;99.90;;;;;;5010467;28;20208;-82
2021/09/03 05:37:17;;;;;;;16.93;15.63;;;10.30;99.90;;;;;;4994766;28;20256;-80
2021/09/03 05:39:45;;;;;;;17.10;15.70;;;10.40;99.90;;;;;;4992412;28;20216;-80
2021/09/03 05:42:14;;;;;;;16.47;15.20;;;10.50;99.90;;;;;;4987170;28;20232;-81
2021/09/03 05:44:41;;;;;;;17.30;15.97;;;10.60;99.90;;;;;;4993959;28;20215;-80
2021/09/03 05:47:07;;;;;;;15.93;14.77;;;10.60;99.90;;;;;;4990288;28;20214;-81
2021/09/03 05:49:34;;;;;;;10.27;9.27;;;10.70;99.90;;;;;;4993120;28;20204;-82
2021/09/03 05:52:01;;;;;;;10.20;9.20;;;10.80;99.90;;;;;;5002891;28;20635;-81
2021/09/03 05:54:28;;;;;;;8.47;7.57;;;10.90;99.90;;;;;;4991709;28;20670;-80
2021/09/03 05:56:56;;;;;;;9.40;7.80;;;11.00;99.90;;;;;;4995423;28;20205;-81
2021/09/03 05:59:23;;;;;;;16.77;15.50;;;11.10;99.90;;;;;;4994253;28;20662;-78
2021/09/03 06:01:50;;;;;;;15.47;14.27;;;11.20;99.90;;;;;;4986986;28;20275;-82
2021/09/03 06:04:17;;;;;;;17.83;16.33;;;11.30;99.90;;;;;;4991005;28;20205;-80
2021/09/03 06:06:44;;;;;;;15.57;14.37;;;11.50;99.90;;;;;;4992541;28;20220;-80
2021/09/03 06:09:10;;;;;;;15.80;14.50;;;11.50;99.90;;;;;;4992628;28;20201;-81
2021/09/03 06:11:37;;;;;;;14.43;12.93;;;11.60;99.90;;;;;;4993965;28;20202;-81
2021/09/03 06:14:06;;;;;;;13.10;11.90;;;11.70;99.90;;;;;;4994138;28;20245;-80
2021/09/03 06:16:33;;;;;;;14.33;12.93;;;11.90;99.90;;;;;;4993631;28;20205;-81
2021/09/03 06:19:00;;;;;;;14.00;12.67;;;12.00;99.90;;;;;;4992790;28;20251;-81
2021/09/03 06:21:27;;;;;;;17.40;15.90;;;12.10;99.90;;;;;;4993838;28;20209;-81
2021/09/03 06:23:54;;;;;;;10.70;9.60;;;12.20;99.90;;;;;;4992783;28;20201;-81
2021/09/03 06:26:21;;;;;;;10.70;8.90;;;12.30;99.90;;;;;;4993919;28;20269;-81
2021/09/03 06:28:48;;;;;;;15.60;14.23;;;12.50;99.90;;;;;;4991968;28;20216;-82
2021/09/03 06:31:16;;;;;;;13.10;11.90;;;12.60;99.90;;;;;;4994885;28;20197;-82
2021/09/03 06:33:43;;;;;;;12.73;11.43;;;12.70;99.90;;;;;;4993740;28;20215;-82
2021/09/03 06:36:10;;;;;;;11.73;10.63;;;12.70;99.90;;;;;;4992385;28;20211;-82
2021/09/03 06:38:37;;;;;;;13.73;12.53;;;12.80;99.90;;;;;;4992138;28;20215;-81
2021/09/03 06:41:03;;;;;;;13.20;12.00;;;12.80;99.90;;;;;;4993810;28;20233;-82
2021/09/03 06:43:30;;;;;;;13.67;12.50;;;12.90;99.90;;;;;;4992294;28;20603;-82
2021/09/03 06:45:57;;;;;;;12.70;11.60;;;12.90;99.90;;;;;;4990770;28;20257;-82
2021/09/03 06:48:25;;;;;;;15.13;13.80;;;13.00;99.90;;;;;;4993503;28;20704;-81
2021/09/03 06:50:52;;;;;;;17.03;15.67;;;13.10;99.90;;;;;;4985840;28;20193;-82
2021/09/03 06:53:19;;;;;;;16.57;15.10;;;13.20;99.90;;;;;;4992695;28;20236;-82
2021/09/03 06:55:46;;;;;;;16.63;15.10;;;13.30;99.90;;;;;;4991705;28;20691;-82
2021/09/03 06:58:12;;;;;;;16.17;14.97;;;13.30;99.90;;;;;;4993514;28;20602;-82
2021/09/03 07:00:39;;;;;;;16.70;15.40;;;13.40;99.90;;;;;;4991908;28;20275;-82
2021/09/03 07:03:06;;;;;;;17.00;15.63;;;13.50;99.90;;;;;;4993529;28;20255;-82
2021/09/03 07:05:34;;;;;;;15.57;14.30;;;13.50;99.90;;;;;;4992286;28;20204;-82
2021/09/03 07:08:01;;;;;;;17.47;16.07;;;13.50;99.90;;;;;;4993148;28;20631;-82
2021/09/03 07:10:28;;;;;;;15.47;14.17;;;13.70;99.90;;;;;;4992171;28;20272;-82
2021/09/03 07:12:55;;;;;;;13.70;12.50;;;13.90;99.90;;;;;;4991086;28;20307;-82
2021/09/03 07:15:21;;;;;;;10.23;8.20;;;14.00;99.90;;;;;;4993010;28;20204;-82
2021/09/03 07:17:48;;;;;;;12.97;11.87;;;14.30;99.90;;;;;;4991881;28;20900;-83
2021/09/03 07:20:16;;;;;;;12.43;11.40;;;14.70;99.90;;;;;;4991970;28;20205;-82
2021/09/03 07:22:51;;;;;;;13.53;12.23;;;15.10;99.90;;;;;;4992855;28;20599;-83
2021/09/03 07:25:18;;;;;;;12.67;11.57;;;15.50;99.90;;;;;;4993029;28;20196;-82
2021/09/03 07:27:45;;;;;;;11.33;10.13;;;15.90;99.90;;;;;;4992784;28;20278;-81
2021/09/03 07:30:12;;;;;;;10.73;9.70;;;16.30;99.90;;;;;;4992753;28;20196;-83
2021/09/03 07:32:41;;;;;;;12.93;11.83;;;16.70;99.90;;;;;;4991439;28;20647;-82
2021/09/03 07:35:09;;;;;;;12.83;11.73;;;16.90;99.90;;;;;;4991938;28;20245;-83
2021/09/03 07:37:36;;;;;;;11.00;10.00;;;17.30;99.90;;;;;;4991493;28;20201;-83
2021/09/03 07:40:05;;;;;;;10.33;9.37;;;17.70;99.90;;;;;;4992912;28;20206;-82
2021/09/03 07:42:33;;;;;;;10.00;9.00;;;18.10;99.90;;;;;;4991528;28;20232;-83
2021/09/03 07:45:00;;;;;;;9.40;8.50;;;18.00;99.90;;;;;;4995963;28;20242;-83
2021/09/03 07:47:26;;;;;;;10.37;8.80;;;18.40;99.90;;;;;;4992774;28;20274;-83
2021/09/03 07:49:54;;;;;;;8.20;7.37;;;18.50;99.90;;;;;;4992550;28;20216;-83
2021/09/03 07:52:21;;;;;;;9.90;8.10;;;18.80;99.90;;;;;;4991681;28;20232;-83
2021/09/03 07:54:48;;;;;;;9.03;7.67;;;19.30;99.90;;;;;;4992853;28;20260;-82
2021/09/03 07:57:16;;;;;;;8.73;7.93;;;19.50;99.90;;;;;;5003430;28;20249;-83
2021/09/03 07:59:43;;;;;;;8.37;7.57;;;19.80;99.90;;;;;;4991425;28;20602;-83
2021/09/03 08:02:10;;;;;;;8.43;7.63;;;20.10;99.90;;;;;;4992816;28;20218;-83
2021/09/03 08:04:37;;;;;;;8.60;7.80;;;20.30;99.90;;;;;;4991425;28;20255;-83
2021/09/03 08:07:04;;;;;;;10.37;9.27;;;20.20;99.90;;;;;;4992388;28;20221;-83
2021/09/03 08:09:31;;;;;;;10.30;9.20;;;20.40;99.90;;;;;;4994589;28;20212;-83
2021/09/03 08:11:58;;;;;;;10.20;9.40;;;20.70;99.90;;;;;;4996416;28;20230;-83
2021/09/03 08:14:26;;;;;;;10.37;9.37;;;20.90;99.90;;;;;;4995259;28;20234;-83
2021/09/03 08:16:53;;;;;;;10.87;9.80;;;21.00;99.90;;;;;;4996512;28;20200;-83
2021/09/03 08:19:20;;;;;;;10.20;9.40;;;21.30;99.90;;;;;;4997398;28;20216;-83
2021/09/03 08:21:51;;;;;;;10.47;8.87;;;21.50;99.90;;;;;;4989024;28;20255;-83
2021/09/03 08:24:20;;;;;;;11.33;10.20;;;21.60;99.90;;;;;;4996426;28;20205;-82
2021/09/03 08:26:47;;;;;;;10.27;9.27;;;21.60;99.90;;;;;;4996240;28;20200;-83
2021/09/03 08:29:13;;;;;;;12.60;11.50;;;21.70;99.90;;;;;;4995869;28;20194;-83
2021/09/03 08:31:42;;;;;;;12.40;11.40;;;21.80;99.90;;;;;;4994081;28;20198;-83
2021/09/03 08:34:08;;;;;;;11.97;10.87;;;22.20;99.90;;;;;;4995863;28;20212;-83
2021/09/03 08:36:35;;;;;;;11.57;10.57;;;22.10;99.90;;;;;;4996054;28;20588;-83
2021/09/03 08:39:02;;;;;;;12.97;11.83;;;22.10;99.90;;;;;;4996391;28;20212;-83
2021/09/03 08:41:30;;;;;;;11.70;10.70;;;22.30;99.90;;;;;;4994706;28;20213;-83
2021/09/03 08:43:59;;;;;;;11.13;10.03;;;22.40;99.90;;;;;;4994565;28;20264;-85
2021/09/03 08:46:26;;;;;;;10.33;9.43;;;22.40;99.90;;;;;;4992920;28;20205;-84
2021/09/03 08:48:55;;;;;;;9.90;9.00;;;22.20;99.90;;;;;;4996612;28;20217;-84
2021/09/03 08:51:22;;;;;;;14.73;13.53;;;22.40;99.90;;;;;;4989629;28;20262;-83
2021/09/03 08:53:48;;;;;;;15.90;14.60;;;22.00;99.90;;;;;;4995079;28;20279;-83
2021/09/03 08:56:19;;;;;;;15.80;14.40;;;22.10;99.90;;;;;;4994417;28;20726;-84
2021/09/03 08:58:46;;;;;;;16.17;14.70;;;22.40;99.90;;;;;;4994231;28;20190;-84
2021/09/03 09:01:14;;;;;;;16.07;14.80;;;22.60;99.90;;;;;;4993819;28;20264;-84
2021/09/03 09:03:43;;;;;;;15.13;14.03;;;22.40;99.90;;;;;;4993173;28;20229;-84
2021/09/03 09:06:18;;;;;;;14.00;12.70;;;22.50;99.90;;;;;;4993904;28;20201;-83
2021/09/03 09:08:45;;;;;;;10.57;8.97;;;22.60;99.90;;;;;;4993167;28;20603;-83
2021/09/03 09:11:14;;;;;;;12.27;11.17;;;22.60;99.90;;;;;;4994674;28;20264;-84
2021/09/03 09:13:42;;;;;;;12.90;11.70;;;22.50;99.90;;;;;;4994490;28;20268;-84
2021/09/03 09:16:11;;;;;;;14.03;12.93;;;22.80;99.90;;;;;;4995985;28;20205;-84
2021/09/03 09:18:44;;;;;;;12.63;11.43;;;22.90;99.90;;;;;;4988013;28;20206;-83
2021/09/03 09:21:18;;;;;;;11.80;10.63;;;22.60;99.90;;;;;;4995282;28;20202;-81
2021/09/03 09:23:54;;;;;;;9.97;9.07;;;22.60;99.90;;;;;;4994646;28;20229;-84
2021/09/03 09:26:24;;;;;;;9.10;8.17;;;22.90;99.90;;;;;;4995170;28;20205;-84
2021/09/03 09:28:52;;;;;;;9.67;8.77;;;22.90;99.90;;;;;;4994053;28;20228;-82
2021/09/03 09:31:31;;;;;;;12.80;11.60;;;23.10;99.90;;;;;;4993781;28;20686;-82
2021/09/03 09:33:58;;;;;;;9.57;7.83;;;22.70;99.90;;;;;;4993768;28;20259;-84
2021/09/03 09:36:34;;;;;;;16.93;15.67;;;22.80;99.90;;;;;;4990592;28;20197;-83
2021/09/03 09:39:02;;;;;;;12.60;11.50;;;23.00;99.90;;;;;;4994811;28;20280;-84
2021/09/03 09:41:29;;;;;;;8.97;8.07;;;22.80;99.90;;;;;;4995888;28;20209;-83
2021/09/03 09:43:56;;;;;;;8.43;7.53;;;22.50;99.90;;;;;;4993572;28;20197;-84
2021/09/03 09:46:24;;;;;;;10.67;8.00;;;22.40;99.90;;;;;;4993672;28;20218;-84
2021/09/03 09:49:14;;;;;;;9.73;8.73;;;22.40;99.90;;;;;;4993339;28;20256;-84
2021/09/03 09:51:51;;;;;;;8.40;7.27;;;22.50;99.90;;;;;;5005569;28;20216;-83
2021/09/03 09:54:20;;;;;;;13.80;7.40;;;22.80;99.90;;;;;;4993619;28;20209;-83
2021/09/03 09:56:53;;;;;;;15.33;14.17;;;22.90;99.90;;;;;;4993608;28;20197;-82
2021/09/03 09:59:22;;;;;;;14.37;13.37;;;22.60;99.90;;;;;;4992389;28;20201;-82
2021/09/03 10:01:50;;;;;;;15.77;14.27;;;22.90;99.90;;;;;;4993691;28;20216;-85
2021/09/03 10:04:20;;;;;;;15.67;14.30;;;22.90;99.90;;;;;;4993310;28;20587;-85
2021/09/03 10:06:50;;;;;;;16.33;15.13;;;22.70;99.90;;;;;;4994215;28;20196;-85
2021/09/03 10:09:18;;;;;;;12.47;11.30;;;22.90;99.90;;;;;;4994161;28;20259;-86
2021/09/03 10:11:46;;;;;;;11.40;10.43;;;22.50;99.90;;;;;;4992709;28;20239;-85
2021/09/03 10:14:16;;;;;;;14.53;13.33;;;22.40;99.90;;;;;;4992983;28;20201;-85
2021/09/03 10:16:44;;;;;;;11.97;10.87;;;22.40;99.90;;;;;;4992899;28;20201;-85
2021/09/03 10:19:12;;;;;;;9.17;8.27;;;22.20;99.90;;;;;;4993973;28;20189;-86
2021/09/03 10:21:39;;;;;;;10.77;9.47;;;22.50;99.90;;;;;;4992538;28;20209;-85
2021/09/03 10:24:17;;;;;;;14.60;13.20;;;22.40;99.90;;;;;;4988509;28;20209;-84
2021/09/03 10:27:15;;;;;;;12.40;11.30;;;22.30;99.90;;;;;;4981739;28;20221;-86
2021/09/03 10:33:11;;;;;;;10.23;8.60;;;22.40;99.90;;;;;;5003757;28;20264;-86
2021/09/03 10:35:38;;;;;;;11.50;9.50;;;22.50;99.90;;;;;;4988918;28;20228;-84
2021/09/03 10:38:27;;;;;;;8.33;7.47;;;22.30;99.90;;;;;;4992495;28;20241;-84
2021/09/03 10:40:56;;;;;;;10.23;9.23;;;22.20;99.90;;;;;;4992940;28;20193;-85
2021/09/03 10:43:43;;;;;;;10.63;9.60;;;22.10;99.90;;;;;;4992190;28;20225;-86
2021/09/03 10:46:12;;;;;;;9.00;7.90;;;22.00;99.90;;;;;;4992301;28;20216;-85
2021/09/03 10:48:42;;;;;;;7.33;6.23;;;22.00;99.90;;;;;;4992112;28;20221;-85
2021/09/03 10:51:09;;;;;;;9.23;7.07;;;22.10;99.90;;;;;;4992967;28;20193;-85
2021/09/03 10:53:37;;;;;;;8.83;7.57;;;22.20;99.90;;;;;;4991970;28;20610;-86
2021/09/03 10:56:21;;;;;;;8.10;7.10;;;22.20;99.90;;;;;;4992030;28;20233;-86
2021/09/03 10:58:59;;;;;;;12.90;11.63;;;22.30;99.90;;;;;;4992392;28;20682;-85
2021/09/03 11:01:37;;;;;;;12.33;11.33;;;22.30;99.90;;;;;;4992050;28;20275;-85
2021/09/03 11:04:06;;;;;;;10.73;8.30;;;22.20;99.90;;;;;;4992029;28;20197;-85
2021/09/03 11:06:36;;;;;;;8.60;7.17;;;22.00;99.90;;;;;;4993033;28;20208;-85
2021/09/03 11:09:05;;;;;;;10.37;7.87;;;21.90;99.90;;;;;;4991717;28;20213;-86
2021/09/03 11:11:35;;;;;;;9.67;7.87;;;21.80;99.90;;;;;;4991639;28;20212;-85
2021/09/03 11:14:04;;;;;;;9.47;8.27;;;21.80;99.90;;;;;;4992073;28;20196;-85
2021/09/03 11:16:33;;;;;;;9.87;8.40;;;21.80;99.90;;;;;;4994295;28;20208;-84
2021/09/03 11:19:03;;;;;;;9.57;7.50;;;21.60;99.90;;;;;;4991384;28;20197;-85
2021/09/03 11:21:31;;;;;;;9.03;7.10;;;21.60;99.90;;;;;;4991765;28;20221;-86
2021/09/03 11:23:58;;;;;;;9.23;7.07;;;21.60;99.90;;;;;;4992561;28;20198;-85
2021/09/03 11:26:28;;;;;;;8.47;6.90;;;21.80;99.90;;;;;;4992794;28;20682;-85
2021/09/03 11:28:57;;;;;;;8.50;7.07;;;21.70;99.90;;;;;;4991193;28;20713;-85
2021/09/03 11:31:24;;;;;;;10.80;7.47;;;21.70;99.90;;;;;;4991259;28;20207;-85
2021/09/03 11:33:51;;;;;;;9.57;7.43;;;21.60;99.90;;;;;;4992651;28;20205;-84
2021/09/03 11:36:18;;;;;;;9.23;7.13;;;21.60;99.90;;;;;;4991394;28;20647;-85
2021/09/03 11:38:52;;;;;;;10.97;7.53;;;21.60;99.90;;;;;;4991044;28;20205;-85
2021/09/03 11:41:19;;;;;;;8.77;6.97;;;21.60;99.90;;;;;;4991336;28;20296;-85
2021/09/03 11:43:46;;;;;;;14.20;12.90;;;21.60;99.90;;;;;;4990929;28;20201;-85
2021/09/03 11:46:20;;;;;;;9.20;8.03;;;21.70;99.90;;;;;;4992788;28;20284;-83
2021/09/03 11:48:48;;;;;;;8.03;6.77;;;21.60;99.90;;;;;;4988807;28;20271;-85
2021/09/03 11:51:17;;;;;;;10.10;7.40;;;21.70;99.90;;;;;;4987794;28;20206;-83
2021/09/03 11:53:44;;;;;;;8.53;6.97;;;21.70;99.90;;;;;;4991425;28;20571;-85
2021/09/03 11:56:16;;;;;;;8.40;7.20;;;21.80;99.90;;;;;;4986450;28;20205;-86
2021/09/03 11:58:43;;;;;;;9.40;7.30;;;21.80;99.90;;;;;;4990397;28;20211;-87
2021/09/03 12:01:11;;;;;;;8.80;7.00;;;21.80;99.90;;;;;;4988134;28;20595;-86
2021/09/03 12:03:43;;;;;;;10.10;7.47;;;21.70;99.90;;;;;;4990474;28;20241;-86
2021/09/03 12:06:14;;;;;;;8.53;7.43;;;21.70;99.90;;;;;;4991174;28;20212;-85
2021/09/03 12:08:41;;;;;;;9.33;7.13;;;21.70;99.90;;;;;;4998737;28;20316;-86
2021/09/03 12:11:10;;;;;;;8.03;6.87;;;21.90;99.90;;;;;;4997667;28;20212;-85
2021/09/03 12:13:40;;;;;;;8.20;7.13;;;22.00;99.90;;;;;;4990723;28;20233;-86
2021/09/03 12:16:10;;;;;;;7.97;7.13;;;22.00;99.90;;;;;;4989886;28;21875;-81
2021/09/03 12:18:39;;;;;;;9.57;7.90;;;22.10;99.90;;;;;;4991838;28;20185;-82
2021/09/03 12:21:12;;;;;;;9.73;7.37;;;22.00;99.90;;;;;;4994002;28;20559;-82
2021/09/03 12:23:42;;;;;;;8.70;7.23;;;22.00;99.90;;;;;;4989259;28;20946;-82
2021/09/03 12:26:14;;;;;;;7.87;6.73;;;22.10;99.90;;;;;;4993289;28;20197;-82
2021/09/03 12:28:42;;;;;;;8.13;7.00;;;22.20;99.90;;;;;;4989983;28;20217;-81
2021/09/03 12:31:11;;;;;;;9.50;7.50;;;22.30;99.90;;;;;;4992185;28;20225;-81
2021/09/03 12:33:48;;;;;;;9.23;7.77;;;22.40;99.90;;;;;;4991671;28;20229;-82
2021/09/03 12:36:19;;;;;;;12.13;10.93;;;22.30;99.90;;;;;;4992463;28;20339;-83
2021/09/03 12:38:50;;;;;;;14.90;13.60;;;22.30;99.90;;;;;;4991533;28;20670;-80
2021/09/03 12:41:19;;;;;;;14.17;12.77;;;22.30;99.90;;;;;;4986734;28;20216;-80